createdAt,value
2018-09-24T00:02:27.508Z,97.00
2018-09-24T00:05:05.241Z,97.40
2018-09-24T00:07:35.642Z,97.30
2018-09-24T00:10:25.434Z,98.00
2018-09-24T00:12:55.817Z,97.00
2018-09-24T00:15:26.201Z,96.60
2018-09-24T00:17:56.619Z,97.50
2018-09-24T00:20:26.999Z,97.50
2018-09-24T00:22:57.311Z,97.30
2018-09-24T00:25:27.721Z,97.60
2018-09-24T00:27:58.887Z,98.80
2018-09-24T00:30:29.277Z,98.50
2018-09-24T00:32:59.692Z,98.30
2018-09-24T00:35:30.089Z,98.40
2018-09-24T00:38:02.527Z,98.20
2018-09-24T00:40:33.720Z,98.20
2018-09-24T00:43:23.541Z,98.20
2018-09-24T00:45:53.878Z,98.40
2018-09-24T00:48:25.030Z,98.30
2018-09-24T00:50:56.177Z,98.70
2018-09-24T00:53:27.350Z,98.60
2018-09-24T00:58:48.043Z,98.00
2018-09-24T01:01:18.439Z,98.20
2018-09-24T01:03:48.827Z,98.10
2018-09-24T01:06:25.388Z,97.00
2018-09-24T01:08:55.779Z,98.00
2018-09-24T01:11:26.931Z,97.80
2018-09-24T01:13:58.101Z,97.60
2018-09-24T01:16:28.500Z,97.60
2018-09-24T01:18:59.651Z,97.60
2018-09-24T01:21:30.833Z,98.20
2018-09-24T01:24:20.332Z,98.50
2018-09-24T01:26:50.757Z,98.50
2018-09-24T01:29:21.140Z,97.90
2018-09-24T01:31:51.546Z,97.90
2018-09-24T01:34:22.729Z,97.60
2018-09-24T01:36:54.150Z,97.50
2018-09-24T01:39:24.546Z,98.40
2018-09-24T01:41:55.995Z,98.10
2018-09-24T01:44:26.390Z,97.80
2018-09-24T01:47:00.859Z,97.40
2018-09-24T01:49:32.044Z,96.80
2018-09-24T01:52:02.432Z,96.40
2018-09-24T01:54:33.595Z,96.80
2018-09-24T01:57:04.023Z,96.70
2018-09-24T01:59:34.417Z,96.50
2018-09-24T02:02:04.819Z,96.50
2018-09-24T02:04:40.288Z,96.30
2018-09-24T02:07:11.730Z,96.40
2018-09-24T02:09:42.104Z,96.30
2018-09-24T02:12:12.544Z,95.80
2018-09-24T02:14:42.937Z,96.30
2018-09-24T02:17:15.050Z,97.40
2018-09-24T02:19:51.563Z,97.00
2018-09-24T02:22:21.941Z,97.40
2018-09-24T02:24:52.340Z,97.80
2018-09-24T02:27:23.705Z,97.80
2018-09-24T02:29:54.088Z,97.80
2018-09-24T02:32:24.664Z,98.30
2018-09-24T02:34:55.093Z,98.10
2018-09-24T02:37:25.480Z,97.60
2018-09-24T02:39:55.865Z,98.00
2018-09-24T02:42:33.583Z,96.80
2018-09-24T02:45:03.985Z,96.40
2018-09-24T02:47:40.496Z,97.10
2018-09-24T02:50:10.893Z,97.90
2018-09-24T02:53:00.881Z,97.40
2018-09-24T02:55:36.388Z,97.20
2018-09-24T02:58:06.816Z,97.20
2018-09-24T03:00:38.921Z,97.10
2018-09-24T03:03:07.628Z,97.40
2018-09-24T03:05:38.051Z,97.40
2018-09-24T03:08:08.431Z,97.20
2018-09-24T03:10:38.862Z,97.40
2018-09-24T03:13:09.272Z,97.00
2018-09-24T03:15:39.857Z,96.30
2018-09-24T03:18:10.238Z,96.60
2018-09-24T03:20:43.491Z,97.50
2018-09-24T03:23:13.881Z,97.60
2018-09-24T03:25:50.437Z,97.50
2018-09-24T03:28:20.834Z,98.20
2018-09-24T03:30:51.994Z,97.90
2018-09-24T03:33:22.397Z,97.90
2018-09-24T03:35:52.788Z,98.50
2018-09-24T03:38:25.281Z,98.00
2018-09-24T03:40:56.383Z,98.10
2018-09-24T03:43:26.761Z,98.50
2018-09-24T03:45:57.162Z,97.90
2018-09-24T03:48:27.585Z,98.30
2018-09-24T03:51:20.131Z,97.70
2018-09-24T03:54:11.972Z,97.70
2018-09-24T03:56:42.374Z,97.70
2018-09-24T03:59:14.805Z,97.40
2018-09-24T04:01:45.219Z,98.50
2018-09-24T04:04:33.380Z,99.10
2018-09-24T04:07:22.330Z,99.10
2018-09-24T04:10:10.893Z,98.70
2018-09-24T04:12:59.220Z,99.10
2018-09-24T04:15:47.329Z,99.20
2018-09-24T04:18:42.702Z,99.70
2018-09-24T04:21:31.831Z,98.80
2018-09-24T04:24:20.222Z,98.70
2018-09-24T04:27:09.512Z,98.50
2018-09-24T04:29:58.124Z,98.50
2018-09-24T04:32:46.594Z,99.20
2018-09-24T04:35:35.163Z,99.10
2018-09-24T04:38:24.405Z,99.70
2018-09-24T04:41:12.634Z,99.30
2018-09-24T04:44:00.979Z,99.10
2018-09-24T04:46:49.640Z,98.70
2018-09-24T04:49:38.311Z,98.50
2018-09-24T04:52:26.546Z,98.70
2018-09-24T04:55:14.943Z,98.30
2018-09-24T04:58:03.213Z,98.20
2018-09-24T05:00:51.760Z,98.30
2018-09-24T05:03:40.719Z,98.60
2018-09-24T05:06:29.384Z,98.20
2018-09-24T05:12:23.783Z,98.10
2018-09-24T05:15:12.320Z,98.80
2018-09-24T05:18:00.648Z,99.00
2018-09-24T05:20:48.963Z,98.20
2018-09-24T05:23:37.069Z,98.00
2018-09-24T05:26:47.715Z,99.10
2018-09-24T05:29:35.910Z,99.10
2018-09-24T05:32:24.604Z,99.30
2018-09-24T05:35:12.834Z,99.10
2018-09-24T05:38:00.951Z,99.50
2018-09-24T05:40:49.378Z,99.10
2018-09-24T05:43:39.684Z,99.60
2018-09-24T05:46:28.148Z,99.90
2018-09-24T05:49:16.647Z,99.50
2018-09-24T05:52:04.848Z,99.30
2018-09-24T05:54:53.075Z,99.50
2018-09-24T05:57:41.580Z,99.00
2018-09-24T06:00:30.252Z,99.20
2018-09-24T06:03:19.567Z,99.90
2018-09-24T06:06:08.050Z,99.90
2018-09-24T06:08:58.215Z,99.90
2018-09-24T06:11:46.605Z,99.80
2018-09-24T06:14:35.395Z,99.70
2018-09-24T06:17:25.124Z,99.90
2018-09-24T06:20:13.679Z,99.90
2018-09-24T06:23:02.724Z,99.90
2018-09-24T06:25:51.024Z,99.90
2018-09-24T06:28:41.492Z,99.00
2018-09-24T06:31:30.063Z,99.90
2018-09-24T06:34:18.613Z,99.90
2018-09-24T06:37:06.979Z,99.90
2018-09-24T06:39:57.694Z,99.30
2018-09-24T06:42:46.026Z,99.90
2018-09-24T06:45:34.560Z,99.90
2018-09-24T06:48:24.249Z,99.90
2018-09-24T06:51:14.456Z,99.70
2018-09-24T06:54:05.290Z,99.90
2018-09-24T06:56:53.604Z,99.10
2018-09-24T06:59:45.787Z,98.50
2018-09-24T07:02:34.179Z,98.20
2018-09-24T07:05:26.496Z,98.70
2018-09-24T07:08:15.380Z,98.90
2018-09-24T07:11:06.942Z,98.90
2018-09-24T07:13:55.119Z,97.90
2018-09-24T07:16:44.251Z,98.80
2018-09-24T07:19:32.414Z,98.70
2018-09-24T07:22:21.648Z,99.30
2018-09-24T07:25:10.120Z,99.20
2018-09-24T07:27:59.210Z,99.20
2018-09-24T07:30:47.510Z,99.90
2018-09-24T07:33:35.847Z,99.90
2018-09-24T07:36:43.698Z,99.80
2018-09-24T07:39:31.923Z,99.90
2018-09-24T07:42:20.173Z,99.90
2018-09-24T07:45:08.650Z,99.90
2018-09-24T07:47:56.721Z,99.90
2018-09-24T07:50:49.082Z,99.90
2018-09-24T07:53:43.583Z,99.70
2018-09-24T07:56:31.798Z,99.40
2018-09-24T07:59:21.731Z,99.90
2018-09-24T08:02:10.146Z,99.80
2018-09-24T08:05:00.335Z,99.20
2018-09-24T08:07:55.135Z,99.90
2018-09-24T08:10:50.029Z,98.50
2018-09-24T08:13:46.535Z,98.50
2018-09-24T08:16:34.796Z,98.20
2018-09-24T08:19:23.401Z,97.90
2018-09-24T08:22:12.020Z,98.70
2018-09-24T08:25:00.234Z,97.60
2018-09-24T08:27:48.476Z,97.40
2018-09-24T08:30:37.950Z,96.60
2018-09-24T08:33:27.577Z,97.60
2018-09-24T08:36:16.093Z,97.60
2018-09-24T08:39:05.343Z,96.50
2018-09-24T08:41:54.538Z,96.00
2018-09-24T08:44:42.940Z,96.00
2018-09-24T08:47:33.131Z,96.30
2018-09-24T08:50:21.583Z,97.00
2018-09-24T08:53:10.328Z,94.10
2018-09-24T08:55:58.449Z,95.40
2018-09-24T08:58:46.892Z,95.60
2018-09-24T09:01:39.352Z,96.00
2018-09-24T09:04:27.729Z,94.40
2018-09-24T09:07:16.791Z,94.20
2018-09-24T09:10:06.171Z,95.40
2018-09-24T09:12:55.508Z,92.90
2018-09-24T09:15:43.917Z,92.90
2018-09-24T09:18:32.190Z,92.60
2018-09-24T09:21:20.674Z,92.00
2018-09-24T09:24:09.227Z,93.10
2018-09-24T09:26:57.621Z,93.60
2018-09-24T09:29:45.813Z,90.10
2018-09-24T09:32:34.190Z,91.80
2018-09-24T09:35:23.696Z,91.70
2018-09-24T09:38:12.232Z,91.70
2018-09-24T09:41:00.900Z,91.50
2018-09-24T09:43:49.846Z,90.10
2018-09-24T09:46:38.003Z,90.10
2018-09-24T09:49:26.562Z,86.00
2018-09-24T09:52:18.582Z,90.00
2018-09-24T09:55:07.367Z,91.50
2018-09-24T09:57:56.084Z,90.20
2018-09-24T10:00:44.552Z,90.30
2018-09-24T10:06:39.625Z,88.40
2018-09-24T10:09:28.106Z,83.90
2018-09-24T10:12:17.580Z,87.80
2018-09-24T10:15:06.948Z,88.20
2018-09-24T10:17:55.687Z,87.10
2018-09-24T10:20:44.069Z,87.10
2018-09-24T10:23:32.458Z,85.70
2018-09-24T10:26:21.239Z,84.20
2018-09-24T10:29:09.449Z,83.90
2018-09-24T10:31:57.706Z,81.40
2018-09-24T10:34:46.156Z,81.60
2018-09-24T10:37:35.117Z,80.60
2018-09-24T10:40:23.578Z,80.50
2018-09-24T10:43:12.371Z,79.90
2018-09-24T10:46:07.762Z,77.00
2018-09-24T10:48:56.237Z,77.00
2018-09-24T10:51:45.078Z,82.90
2018-09-24T10:54:33.160Z,82.90
2018-09-24T10:57:21.486Z,81.80
2018-09-24T11:00:10.670Z,77.90
2018-09-24T11:02:58.826Z,77.90
2018-09-24T11:05:51.251Z,76.60
2018-09-24T11:08:39.502Z,78.40
2018-09-24T11:11:28.106Z,80.00
2018-09-24T11:14:16.672Z,75.10
2018-09-24T11:17:05.316Z,74.90
2018-09-24T11:19:53.716Z,74.60
2018-09-24T11:22:42.045Z,78.00
2018-09-24T11:25:30.594Z,79.30
2018-09-24T11:28:19.915Z,79.30
2018-09-24T11:31:08.620Z,80.00
2018-09-24T11:33:57.994Z,79.60
2018-09-24T11:36:46.459Z,79.60
2018-09-24T11:39:35.038Z,80.30
2018-09-24T11:42:44.826Z,79.40
2018-09-24T11:45:33.170Z,79.70
2018-09-24T11:48:21.456Z,77.10
2018-09-24T11:51:09.915Z,73.70
2018-09-24T11:53:58.238Z,73.60
2018-09-24T11:56:47.399Z,75.50
2018-09-24T11:59:36.537Z,74.50
2018-09-24T12:02:25.103Z,74.40
2018-09-24T12:05:13.822Z,73.20
2018-09-24T12:08:06.480Z,71.60
2018-09-24T12:11:03.735Z,72.00
2018-09-24T12:13:52.031Z,72.40
2018-09-24T12:16:40.915Z,72.00
2018-09-24T12:19:29.152Z,67.20
2018-09-24T12:22:17.967Z,68.90
2018-09-24T12:25:06.598Z,69.10
2018-09-24T12:27:54.846Z,73.60
2018-09-24T12:30:44.013Z,75.40
2018-09-24T12:33:33.283Z,76.60
2018-09-24T12:36:21.595Z,76.60
2018-09-24T12:39:09.960Z,76.20
2018-09-24T12:42:00.606Z,77.20
2018-09-24T12:44:50.033Z,69.90
2018-09-24T12:47:38.227Z,68.40
2018-09-24T12:50:27.507Z,72.60
2018-09-24T12:53:16.017Z,72.40
2018-09-24T12:56:05.132Z,74.10
2018-09-24T12:58:53.600Z,74.00
2018-09-24T13:01:41.965Z,75.00
2018-09-24T13:04:32.213Z,74.00
2018-09-24T13:07:20.838Z,72.50
2018-09-24T13:10:09.525Z,71.00
2018-09-24T13:12:58.677Z,69.60
2018-09-24T13:15:47.631Z,69.00
2018-09-24T13:18:35.878Z,69.80
2018-09-24T13:21:24.153Z,68.00
2018-09-24T13:24:12.445Z,72.40
2018-09-24T13:27:01.406Z,72.40
2018-09-24T13:29:50.333Z,74.10
2018-09-24T13:32:38.808Z,74.00
2018-09-24T13:35:27.020Z,70.90
2018-09-24T13:38:15.207Z,70.80
2018-09-24T13:41:03.351Z,65.00
2018-09-24T13:43:51.504Z,69.70
2018-09-24T13:46:44.069Z,68.50
2018-09-24T13:49:32.272Z,71.20
2018-09-24T13:52:40.469Z,71.20
2018-09-24T13:55:29.256Z,70.60
2018-09-24T13:58:18.516Z,67.80
2018-09-24T14:01:06.846Z,67.80
2018-09-24T14:03:56.367Z,66.80
2018-09-24T14:06:45.527Z,66.80
2018-09-24T14:09:33.688Z,67.30
2018-09-24T14:12:24.114Z,64.30
2018-09-24T14:15:12.239Z,60.90
2018-09-24T14:18:01.214Z,63.00
2018-09-24T14:20:49.605Z,63.00
2018-09-24T14:23:38.809Z,64.40
2018-09-24T14:26:28.042Z,67.90
2018-09-24T14:29:17.388Z,67.80
2018-09-24T14:32:07.682Z,66.00
2018-09-24T14:34:56.102Z,69.40
2018-09-24T14:37:45.450Z,66.20
2018-09-24T14:40:34.667Z,66.10
2018-09-24T14:43:23.425Z,69.50
2018-09-24T14:49:20.218Z,68.30
2018-09-24T14:52:27.551Z,70.90
2018-09-24T14:55:16.019Z,70.90
2018-09-24T14:58:04.309Z,70.80
2018-09-24T15:00:53.793Z,69.10
2018-09-24T15:03:44.221Z,68.40
2018-09-24T15:06:33.081Z,69.00
2018-09-24T15:09:21.366Z,69.00
2018-09-24T15:12:11.930Z,70.60
2018-09-24T15:15:00.065Z,71.60
2018-09-24T15:17:48.382Z,85.30
2018-09-24T15:20:36.911Z,82.60
2018-09-24T15:23:33.353Z,74.60
2018-09-24T15:26:24.760Z,71.20
2018-09-24T15:29:13.996Z,68.00
2018-09-24T15:32:03.149Z,66.90
2018-09-24T15:34:51.590Z,66.90
2018-09-24T15:37:39.925Z,68.80
2018-09-24T15:40:28.250Z,78.30
2018-09-24T15:43:16.778Z,68.90
2018-09-24T15:46:05.063Z,68.70
2018-09-24T15:48:53.578Z,66.80
2018-09-24T15:51:42.499Z,67.60
2018-09-24T15:54:31.123Z,66.50
2018-09-24T15:57:39.745Z,67.50
2018-09-24T16:00:28.128Z,67.00
2018-09-24T16:03:16.327Z,67.10
2018-09-24T16:06:12.922Z,66.60
2018-09-24T16:09:02.246Z,68.80
2018-09-24T16:11:50.395Z,68.80
2018-09-24T16:14:38.568Z,70.00
2018-09-24T16:17:26.973Z,67.70
2018-09-24T16:20:16.454Z,68.90
2018-09-24T16:23:11.127Z,69.70
2018-09-24T16:25:59.315Z,80.20
2018-09-24T16:28:53.504Z,68.50
2018-09-24T16:31:44.480Z,67.00
2018-09-24T16:34:39.368Z,66.50
2018-09-24T16:37:27.851Z,64.50
2018-09-24T16:40:16.868Z,65.30
2018-09-24T16:43:14.175Z,68.00
2018-09-24T16:46:02.593Z,68.00
2018-09-24T16:48:50.928Z,67.70
2018-09-24T16:51:41.665Z,68.30
2018-09-24T16:54:29.909Z,69.10
2018-09-24T16:57:39.576Z,67.50
2018-09-24T17:00:28.135Z,67.50
2018-09-24T17:03:16.856Z,66.90
2018-09-24T17:06:05.144Z,68.30
2018-09-24T17:08:53.709Z,68.20
2018-09-24T17:11:42.292Z,67.30
2018-09-24T17:14:30.525Z,68.50
2018-09-24T17:17:19.242Z,67.20
2018-09-24T17:20:07.539Z,68.30
2018-09-24T17:22:55.854Z,68.90
2018-09-24T17:25:47.566Z,68.30
2018-09-24T17:28:44.794Z,68.30
2018-09-24T17:31:52.513Z,68.00
2018-09-24T17:34:41.052Z,68.00
2018-09-24T17:37:30.716Z,69.50
2018-09-24T17:40:23.393Z,68.90
2018-09-24T17:43:11.805Z,69.50
2018-09-24T17:46:00.104Z,69.60
2018-09-24T17:48:49.008Z,70.20
2018-09-24T17:51:37.360Z,70.20
2018-09-24T17:54:25.846Z,72.00
2018-09-24T17:57:14.057Z,70.70
2018-09-24T18:00:02.527Z,71.10
2018-09-24T18:02:51.360Z,71.60
2018-09-24T18:05:39.824Z,72.60
2018-09-24T18:08:32.182Z,72.30
2018-09-24T18:11:42.028Z,72.60
2018-09-24T18:14:50.874Z,73.80
2018-09-24T18:17:39.570Z,71.80
2018-09-24T18:20:28.777Z,72.30
2018-09-24T18:23:38.664Z,72.20
2018-09-24T18:26:27.056Z,71.70
2018-09-24T18:29:18.152Z,72.20
2018-09-24T18:32:06.763Z,72.50
2018-09-24T18:34:55.457Z,71.50
2018-09-24T18:37:44.636Z,77.50
2018-09-24T18:40:33.118Z,77.50
2018-09-24T18:43:41.963Z,73.70
2018-09-24T18:46:32.776Z,72.40
2018-09-24T18:49:21.083Z,72.10
2018-09-24T18:52:09.721Z,73.60
2018-09-24T18:55:00.558Z,72.50
2018-09-24T18:57:48.952Z,72.40
2018-09-24T19:00:39.130Z,72.00
2018-09-24T19:03:26.538Z,72.00
2018-09-24T19:06:14.990Z,73.10
2018-09-24T19:09:03.347Z,72.50
2018-09-24T19:11:51.606Z,71.90
2018-09-24T19:15:00.588Z,73.30
2018-09-24T19:17:51.746Z,80.90
2018-09-24T19:20:40.282Z,71.60
2018-09-24T19:23:34.307Z,72.40
2018-09-24T19:26:23.193Z,72.90
2018-09-24T19:29:11.737Z,73.40
2018-09-24T19:35:08.040Z,72.30
2018-09-24T19:37:58.299Z,73.00
2018-09-24T19:40:49.061Z,73.90
2018-09-24T19:43:37.276Z,73.80
2018-09-24T19:46:25.713Z,74.90
2018-09-24T19:49:15.943Z,74.90
2018-09-24T19:52:04.105Z,74.70
2018-09-24T19:54:53.397Z,75.20
2018-09-24T19:57:42.558Z,75.30
2018-09-24T20:00:30.833Z,75.30
2018-09-24T20:03:19.233Z,75.90
2018-09-24T20:06:08.384Z,76.10
2018-09-24T20:08:58.771Z,76.00
2018-09-24T20:11:47.329Z,76.30
2018-09-24T20:14:38.404Z,76.20
2018-09-24T20:17:46.730Z,76.60
2018-09-24T20:20:34.882Z,76.50
2018-09-24T20:23:23.521Z,77.00
2018-09-24T20:26:15.623Z,78.50
2018-09-24T20:29:04.139Z,77.50
2018-09-24T20:31:52.885Z,79.00
2018-09-24T20:34:41.060Z,78.60
2018-09-24T20:37:30.373Z,77.80
2018-09-24T20:40:18.813Z,75.70
2018-09-24T20:43:07.246Z,77.00
2018-09-24T20:45:55.601Z,77.50
2018-09-24T20:48:44.108Z,78.60
2018-09-24T20:51:32.525Z,77.80
2018-09-24T20:54:20.803Z,79.20
2018-09-24T20:57:09.271Z,78.80
2018-09-24T20:59:58.340Z,81.10
2018-09-24T21:02:47.443Z,80.60
2018-09-24T21:05:36.883Z,80.60
2018-09-24T21:08:25.274Z,80.90
2018-09-24T21:11:35.265Z,81.70
2018-09-24T21:14:23.409Z,82.20
2018-09-24T21:17:11.826Z,82.60
2018-09-24T21:20:00.132Z,82.80
2018-09-24T21:22:48.658Z,83.00
2018-09-24T21:25:36.890Z,83.30
2018-09-24T21:28:25.445Z,83.90
2018-09-24T21:31:13.897Z,83.80
2018-09-24T21:34:02.344Z,84.00
2018-09-24T21:36:50.901Z,84.10
2018-09-24T21:39:39.525Z,84.20
2018-09-24T21:42:33.245Z,84.10
2018-09-24T21:45:23.130Z,85.10
2018-09-24T21:48:12.129Z,85.30
2018-09-24T21:51:00.259Z,85.30
2018-09-24T21:53:49.006Z,85.70
2018-09-24T21:56:37.709Z,86.60
2018-09-24T21:59:25.963Z,86.30
2018-09-24T22:02:14.123Z,86.70
2018-09-24T22:05:03.143Z,87.80
2018-09-24T22:07:55.698Z,87.70
2018-09-24T22:10:44.044Z,87.30
2018-09-24T22:13:41.818Z,87.50
2018-09-24T22:16:30.250Z,87.60
2018-09-24T22:19:24.923Z,87.80
2018-09-24T22:22:13.377Z,87.80
2018-09-24T22:25:01.872Z,88.30
2018-09-24T22:27:50.318Z,88.20
2018-09-24T22:30:38.831Z,88.80
2018-09-24T22:33:26.932Z,89.20
2018-09-24T22:36:15.439Z,89.80
2018-09-24T22:39:03.851Z,88.70
2018-09-24T22:41:52.341Z,88.70
2018-09-24T22:44:40.812Z,89.50
2018-09-24T22:47:29.215Z,88.70
2018-09-24T22:50:17.586Z,88.90
2018-09-24T22:53:12.901Z,89.10
2018-09-24T22:56:01.507Z,88.90
2018-09-24T22:58:50.209Z,89.50
2018-09-24T23:01:38.500Z,90.20
2018-09-24T23:04:26.923Z,90.50
2018-09-24T23:07:15.367Z,90.40
2018-09-24T23:10:24.980Z,90.40
2018-09-24T23:13:13.111Z,90.60
2018-09-24T23:16:02.462Z,91.00
2018-09-24T23:18:51.008Z,91.00
2018-09-24T23:21:39.539Z,90.50
2018-09-24T23:24:27.915Z,91.00
2018-09-24T23:27:16.211Z,91.10
2018-09-24T23:30:08.428Z,91.50
2018-09-24T23:32:57.066Z,91.60
2018-09-24T23:35:46.147Z,91.90
2018-09-24T23:38:34.896Z,91.90
2018-09-24T23:41:23.523Z,91.90
2018-09-24T23:44:12.006Z,91.70
2018-09-24T23:47:00.426Z,91.70
2018-09-24T23:49:49.161Z,91.30
2018-09-24T23:52:37.664Z,91.60
2018-09-24T23:55:26.084Z,91.30
2018-09-24T23:58:14.588Z,91.80
